createdAt,value
2019-05-16T00:00:51.369Z,6.20
2019-05-16T00:03:21.527Z,3.30
2019-05-16T00:05:54.420Z,6.53
2019-05-16T00:08:22.727Z,3.97
2019-05-16T00:10:53.006Z,4.43
2019-05-16T00:13:23.040Z,4.40
2019-05-16T00:15:53.144Z,6.13
2019-05-16T00:18:22.966Z,6.40
2019-05-16T00:20:52.751Z,6.40
2019-05-16T00:23:22.446Z,6.20
2019-05-16T00:25:52.483Z,3.50
2019-05-16T00:28:22.322Z,3.80
2019-05-16T00:30:52.885Z,4.30
2019-05-16T00:33:22.701Z,4.80
2019-05-16T00:36:02.596Z,3.93
2019-05-16T00:38:24.118Z,3.20
2019-05-16T00:40:53.754Z,4.00
2019-05-16T00:43:24.120Z,7.97
2019-05-16T00:45:53.857Z,3.87
2019-05-16T00:48:24.375Z,3.53
2019-05-16T00:50:54.168Z,4.53
2019-05-16T00:53:24.210Z,5.10
2019-05-16T00:55:54.427Z,6.50
2019-05-16T00:58:24.660Z,4.53
2019-05-16T01:00:54.349Z,6.40
2019-05-16T01:03:24.039Z,3.10
2019-05-16T01:05:53.774Z,5.20
2019-05-16T01:08:23.993Z,5.73
2019-05-16T01:10:53.764Z,5.50
2019-05-16T01:13:23.627Z,4.87
2019-05-16T01:15:53.414Z,6.17
2019-05-16T01:18:23.253Z,4.13
2019-05-16T01:20:53.140Z,8.23
2019-05-16T01:23:23.244Z,6.83
2019-05-16T01:25:53.356Z,3.77
2019-05-16T01:28:23.480Z,4.10
2019-05-16T01:30:53.214Z,4.70
2019-05-16T01:33:23.169Z,4.37
2019-05-16T01:35:52.924Z,2.90
2019-05-16T01:38:23.050Z,3.47
2019-05-16T01:40:53.429Z,7.70
2019-05-16T01:43:23.303Z,8.80
2019-05-16T01:45:53.501Z,5.93
2019-05-16T01:48:23.290Z,7.00
2019-05-16T01:50:53.658Z,7.23
2019-05-16T01:53:23.726Z,5.67
2019-05-16T01:55:53.779Z,5.07
2019-05-16T01:58:23.686Z,3.63
2019-05-16T02:01:05.855Z,5.63
2019-05-16T02:03:25.360Z,4.17
2019-05-16T02:05:55.168Z,12.80
2019-05-16T02:08:24.767Z,4.20
2019-05-16T02:10:54.491Z,4.10
2019-05-16T02:13:24.597Z,7.23
2019-05-16T02:15:54.446Z,5.27
2019-05-16T02:18:24.522Z,8.00
2019-05-16T02:21:13.206Z,3.43
2019-05-16T02:23:42.859Z,4.47
2019-05-16T02:26:12.928Z,4.43
2019-05-16T02:28:43.770Z,3.27
2019-05-16T02:31:15.272Z,7.37
2019-05-16T02:33:45.398Z,4.90
2019-05-16T02:36:15.041Z,3.13
2019-05-16T02:38:44.797Z,4.03
2019-05-16T02:41:14.665Z,4.87
2019-05-16T02:43:44.443Z,4.43
2019-05-16T02:46:14.041Z,3.40
2019-05-16T02:48:44.051Z,6.20
2019-05-16T02:51:13.808Z,4.10
2019-05-16T02:53:43.985Z,5.37
2019-05-16T02:56:13.628Z,3.77
2019-05-16T02:58:44.798Z,10.80
2019-05-16T03:01:15.277Z,6.93
2019-05-16T03:03:45.295Z,4.77
2019-05-16T03:06:15.905Z,6.97
2019-05-16T03:08:47.470Z,3.17
2019-05-16T03:11:20.844Z,4.07
2019-05-16T03:13:51.580Z,8.40
2019-05-16T03:16:23.616Z,4.80
2019-05-16T03:18:54.807Z,6.93
2019-05-16T03:21:25.257Z,5.43
2019-05-16T03:23:55.283Z,5.60
2019-05-16T03:26:25.369Z,7.00
2019-05-16T03:28:55.496Z,6.50
2019-05-16T03:31:25.494Z,5.20
2019-05-16T03:33:59.155Z,5.43
2019-05-16T03:36:27.165Z,5.50
2019-05-16T03:38:57.538Z,6.10
2019-05-16T03:41:27.260Z,7.10
2019-05-16T03:43:56.951Z,3.83
2019-05-16T03:46:26.827Z,8.30
2019-05-16T03:48:56.915Z,4.20
2019-05-16T03:51:26.788Z,4.87
2019-05-16T03:53:56.768Z,5.60
2019-05-16T03:56:27.246Z,8.20
2019-05-16T03:58:56.940Z,6.73
2019-05-16T04:01:27.116Z,4.50
2019-05-16T04:03:56.945Z,5.17
2019-05-16T04:06:27.320Z,3.80
2019-05-16T04:08:57.104Z,4.50
2019-05-16T04:11:26.783Z,4.50
2019-05-16T04:13:56.641Z,4.67
2019-05-16T04:16:26.489Z,17.07
2019-05-16T04:18:56.599Z,5.80
2019-05-16T04:21:26.987Z,6.73
2019-05-16T04:23:56.632Z,10.23
2019-05-16T04:26:26.464Z,6.13
2019-05-16T04:28:56.743Z,6.33
2019-05-16T04:31:26.908Z,8.20
2019-05-16T04:33:56.829Z,8.27
2019-05-16T04:36:26.551Z,6.67
2019-05-16T04:38:56.634Z,7.30
2019-05-16T04:41:26.851Z,9.00
2019-05-16T04:44:00.454Z,8.00
2019-05-16T04:46:31.292Z,7.77
2019-05-16T04:49:01.746Z,6.40
2019-05-16T04:51:31.325Z,15.13
2019-05-16T04:54:03.449Z,8.77
2019-05-16T04:56:33.656Z,7.10
2019-05-16T04:59:03.275Z,6.00
2019-05-16T05:01:32.915Z,11.77
2019-05-16T05:04:10.778Z,10.67
2019-05-16T05:06:34.704Z,10.00
2019-05-16T05:09:05.631Z,9.30
2019-05-16T05:11:35.820Z,8.40
2019-05-16T05:16:34.346Z,6.03
2019-05-16T05:29:00.429Z,4.53
2019-05-16T05:31:35.148Z,6.07
2019-05-16T05:34:02.085Z,3.63
2019-05-16T05:36:31.943Z,3.50
2019-05-16T05:39:11.111Z,7.83
2019-05-16T05:41:33.317Z,5.17
2019-05-16T05:44:03.015Z,9.53
2019-05-16T05:46:32.678Z,4.07
2019-05-16T05:49:02.404Z,6.20
2019-05-16T05:51:32.539Z,9.80
2019-05-16T05:54:02.236Z,5.67
2019-05-16T05:56:31.903Z,8.40
2019-05-16T05:59:01.672Z,3.87
2019-05-16T06:01:31.646Z,3.80
2019-05-16T06:04:02.659Z,5.97
2019-05-16T06:06:32.326Z,4.77
2019-05-16T06:09:02.472Z,4.87
2019-05-16T06:11:32.798Z,2.57
2019-05-16T06:14:02.664Z,4.43
2019-05-16T06:16:32.707Z,5.60
2019-05-16T06:19:02.378Z,3.60
2019-05-16T06:21:33.156Z,3.00
2019-05-16T06:24:03.742Z,5.17
2019-05-16T06:26:33.747Z,6.63
2019-05-16T06:29:03.462Z,6.23
2019-05-16T06:36:33.862Z,6.93
2019-05-16T06:39:04.938Z,4.40
2019-05-16T06:44:03.551Z,8.13
2019-05-16T06:46:52.593Z,14.30
2019-05-16T06:49:05.512Z,9.05
2019-05-16T06:54:04.364Z,4.13
2019-05-16T07:24:07.818Z,4.00
2019-05-16T07:29:06.884Z,5.25
2019-05-16T07:31:37.055Z,4.43
2019-05-16T07:34:07.221Z,6.67
2019-05-16T07:37:00.328Z,6.90
2019-05-16T07:39:30.644Z,7.03
2019-05-16T07:42:00.680Z,6.60
2019-05-16T07:44:31.247Z,6.23
2019-05-16T07:47:01.553Z,8.33
2019-05-16T07:49:31.730Z,5.00
2019-05-16T07:52:01.550Z,4.63
2019-05-16T07:54:34.638Z,2.90
2019-05-16T07:57:16.180Z,3.10
2019-05-16T07:59:34.674Z,5.20
2019-05-16T08:02:04.422Z,3.87
2019-05-16T08:04:34.669Z,3.67
2019-05-16T08:07:23.489Z,7.73
2019-05-16T08:09:53.157Z,3.77
2019-05-16T08:12:26.232Z,8.37
2019-05-16T08:14:54.613Z,6.53
2019-05-16T08:17:24.334Z,3.10
2019-05-16T08:19:54.332Z,5.13
2019-05-16T08:22:24.133Z,4.73
2019-05-16T08:24:53.970Z,5.83
2019-05-16T08:27:24.096Z,8.90
2019-05-16T08:29:54.145Z,3.07
2019-05-16T08:32:24.177Z,2.90
2019-05-16T08:34:54.153Z,3.30
2019-05-16T08:37:37.051Z,5.83
2019-05-16T08:39:55.488Z,6.27
2019-05-16T08:42:25.152Z,6.80
2019-05-16T08:44:54.920Z,5.07
2019-05-16T08:47:24.613Z,5.47
2019-05-16T08:49:54.340Z,6.20
2019-05-16T08:52:24.148Z,6.70
2019-05-16T08:54:54.271Z,5.70
2019-05-16T08:57:27.882Z,6.03
2019-05-16T08:59:55.481Z,9.20
2019-05-16T09:02:35.514Z,3.97
2019-05-16T09:04:56.788Z,5.83
2019-05-16T09:07:26.830Z,4.13
2019-05-16T09:10:00.081Z,6.27
2019-05-16T09:12:28.028Z,5.57
2019-05-16T09:14:59.320Z,8.03
2019-05-16T09:17:29.446Z,4.50
2019-05-16T09:19:59.221Z,5.80
2019-05-16T09:22:28.862Z,5.47
2019-05-16T09:24:58.603Z,5.27
2019-05-16T09:27:28.268Z,9.23
2019-05-16T09:29:58.134Z,6.73
2019-05-16T09:32:28.189Z,6.23
2019-05-16T09:34:58.548Z,6.10
2019-05-16T09:37:28.210Z,9.37
2019-05-16T09:44:58.053Z,8.50
2019-05-16T09:47:28.445Z,7.47
2019-05-16T09:49:59.600Z,4.80
2019-05-16T09:52:29.736Z,5.70
2019-05-16T09:54:59.503Z,5.43
2019-05-16T09:57:29.241Z,7.50
2019-05-16T09:59:59.552Z,8.30
2019-05-16T10:02:29.280Z,5.80
2019-05-16T10:04:58.866Z,3.87
2019-05-16T10:07:28.945Z,3.80
2019-05-16T10:09:58.767Z,7.13
2019-05-16T10:12:28.950Z,4.17
2019-05-16T10:14:59.807Z,7.10
2019-05-16T10:17:29.790Z,4.75
2019-05-16T10:20:00.112Z,3.33
2019-05-16T10:22:30.452Z,3.80
2019-05-16T10:25:00.115Z,3.20
2019-05-16T10:27:30.062Z,7.93
2019-05-16T10:30:01.190Z,3.73
2019-05-16T10:32:31.330Z,7.70
2019-05-16T10:35:01.121Z,8.87
2019-05-16T10:37:30.950Z,9.20
2019-05-16T10:40:00.759Z,6.77
2019-05-16T10:42:30.892Z,4.70
2019-05-16T10:45:00.886Z,4.03
2019-05-16T10:47:31.458Z,4.50
2019-05-16T10:50:01.516Z,6.37
2019-05-16T10:52:31.483Z,5.97
2019-05-16T10:55:02.577Z,3.27
2019-05-16T10:57:32.979Z,3.40
2019-05-16T11:00:12.411Z,7.17
2019-05-16T11:02:36.976Z,5.00
2019-05-16T11:05:25.921Z,5.23
2019-05-16T11:07:38.486Z,4.20
2019-05-16T11:10:08.801Z,8.60
2019-05-16T11:12:50.700Z,16.63
2019-05-16T11:15:11.862Z,5.87
2019-05-16T11:17:41.565Z,7.83
2019-05-16T11:20:11.771Z,4.77
2019-05-16T11:22:41.590Z,3.70
2019-05-16T11:25:24.242Z,5.90
2019-05-16T11:27:43.495Z,6.23
2019-05-16T11:30:13.511Z,5.30
2019-05-16T11:32:43.206Z,8.70
2019-05-16T11:35:16.897Z,9.73
2019-05-16T11:37:47.459Z,5.60
2019-05-16T11:40:18.105Z,7.43
2019-05-16T11:43:05.380Z,5.20
2019-05-16T11:45:20.464Z,6.60
2019-05-16T11:47:50.471Z,4.77
2019-05-16T11:50:20.484Z,10.20
2019-05-16T11:52:50.135Z,6.37
2019-05-16T11:55:20.437Z,7.40
2019-05-16T11:57:50.091Z,14.47
2019-05-16T12:00:20.203Z,4.50
2019-05-16T12:02:49.867Z,6.87
2019-05-16T12:05:19.915Z,7.63
2019-05-16T12:07:50.092Z,5.43
2019-05-16T12:10:20.464Z,7.07
2019-05-16T12:12:50.243Z,5.00
2019-05-16T12:15:21.013Z,5.80
2019-05-16T12:18:01.001Z,5.20
2019-05-16T12:20:22.992Z,7.73
2019-05-16T12:22:53.079Z,9.25
2019-05-16T12:25:23.225Z,11.13
2019-05-16T12:37:48.263Z,7.20
2019-05-16T12:40:19.694Z,6.20
2019-05-16T12:42:49.434Z,6.83
2019-05-16T12:45:19.594Z,6.77
2019-05-16T12:47:49.371Z,8.27
2019-05-16T12:50:20.369Z,14.20
2019-05-16T12:52:49.952Z,14.70
2019-05-16T12:55:19.629Z,5.57
2019-05-16T12:57:50.074Z,8.60
2019-05-16T13:00:20.379Z,8.37
2019-05-16T13:02:50.468Z,5.80
2019-05-16T13:05:20.373Z,5.00
2019-05-16T13:07:50.135Z,7.63
2019-05-16T13:10:20.077Z,12.47
2019-05-16T13:12:50.051Z,9.30
2019-05-16T13:15:20.893Z,9.53
2019-05-16T13:17:50.985Z,8.07
2019-05-16T13:20:20.795Z,9.00
2019-05-16T13:22:51.471Z,10.83
2019-05-16T13:25:21.234Z,6.50
2019-05-16T13:27:51.051Z,9.40
2019-05-16T13:30:21.069Z,5.90
2019-05-16T13:32:51.198Z,7.17
2019-05-16T13:35:21.332Z,10.30
2019-05-16T13:37:51.526Z,12.20
2019-05-16T13:40:21.499Z,6.90
2019-05-16T13:42:51.465Z,9.27
2019-05-16T13:45:21.658Z,10.73
2019-05-16T13:47:51.776Z,15.57
2019-05-16T13:50:21.769Z,7.93
2019-05-16T13:52:51.530Z,11.50
2019-05-16T13:55:21.872Z,8.37
2019-05-16T13:57:51.899Z,10.13
2019-05-16T14:00:22.633Z,9.40
2019-05-16T14:02:52.381Z,11.80
2019-05-16T14:05:22.327Z,14.60
2019-05-16T14:07:52.167Z,15.07
2019-05-16T14:10:22.321Z,8.63
2019-05-16T14:12:52.130Z,12.57
2019-05-16T14:15:22.211Z,9.73
2019-05-16T14:17:52.313Z,9.17
2019-05-16T14:20:22.085Z,9.17
2019-05-16T14:22:51.860Z,10.63
2019-05-16T14:25:22.265Z,8.93
2019-05-16T14:27:52.127Z,12.83
2019-05-16T14:30:22.203Z,8.60
2019-05-16T14:32:51.998Z,12.43
2019-05-16T14:35:22.076Z,10.03
2019-05-16T14:37:57.479Z,6.97
2019-05-16T14:40:23.691Z,6.20
2019-05-16T14:42:53.525Z,9.50
2019-05-16T14:45:23.459Z,9.07
2019-05-16T14:47:54.268Z,6.70
2019-05-16T14:50:27.303Z,8.10
2019-05-16T14:52:56.658Z,10.67
2019-05-16T14:55:27.489Z,9.97
2019-05-16T14:57:57.645Z,6.80
2019-05-16T15:00:27.831Z,9.67
2019-05-16T15:02:57.888Z,5.93
2019-05-16T15:05:28.551Z,12.00
2019-05-16T15:07:58.647Z,4.57
2019-05-16T15:10:28.799Z,8.20
2019-05-16T15:12:58.966Z,7.00
2019-05-16T15:15:29.468Z,11.20
2019-05-16T15:17:59.522Z,10.57
2019-05-16T15:20:29.446Z,6.57
2019-05-16T15:22:59.239Z,7.97
2019-05-16T15:25:29.029Z,5.97
2019-05-16T15:28:00.494Z,7.60
2019-05-16T15:30:30.336Z,7.57
2019-05-16T15:33:00.410Z,9.60
2019-05-16T15:35:30.641Z,7.33
2019-05-16T15:38:00.876Z,10.03
2019-05-16T15:40:30.680Z,7.70
2019-05-16T15:43:00.832Z,8.50
2019-05-16T15:45:43.143Z,6.80
2019-05-16T15:48:11.173Z,5.03
2019-05-16T15:50:41.525Z,8.60
2019-05-16T15:53:11.387Z,7.17
2019-05-16T15:55:41.613Z,8.40
2019-05-16T15:58:11.765Z,5.50
2019-05-16T16:00:43.508Z,8.70
2019-05-16T16:03:17.345Z,4.43
2019-05-16T16:05:45.098Z,4.30
2019-05-16T16:08:17.793Z,5.07
2019-05-16T16:10:47.882Z,6.10
2019-05-16T16:13:19.771Z,9.17
2019-05-16T16:15:54.104Z,5.17
2019-05-16T16:18:21.953Z,7.13
2019-05-16T16:20:52.180Z,8.10
2019-05-16T16:23:22.515Z,11.33
2019-05-16T16:25:52.774Z,7.70
2019-05-16T16:28:22.706Z,5.23
2019-05-16T16:30:52.515Z,7.80
2019-05-16T16:33:26.274Z,9.43
2019-05-16T16:35:53.569Z,6.00
2019-05-16T16:38:24.419Z,6.80
2019-05-16T16:40:57.180Z,8.90
2019-05-16T16:43:26.321Z,6.97
2019-05-16T16:46:06.030Z,8.77
2019-05-16T16:48:27.526Z,9.27
2019-05-16T16:50:57.585Z,11.60
2019-05-16T16:53:27.260Z,15.10
2019-05-16T16:55:57.137Z,11.30
2019-05-16T16:58:26.992Z,10.30
2019-05-16T17:00:56.675Z,9.33
2019-05-16T17:03:46.979Z,13.33
2019-05-16T17:06:17.689Z,10.30
2019-05-16T17:08:47.644Z,13.83
2019-05-16T17:11:17.395Z,7.90
2019-05-16T17:13:47.333Z,10.03
2019-05-16T17:16:25.827Z,7.40
2019-05-16T17:18:48.628Z,7.70
2019-05-16T17:21:18.809Z,12.77
2019-05-16T17:23:49.412Z,8.90
2019-05-16T17:26:19.606Z,10.80
2019-05-16T17:28:49.881Z,9.40
2019-05-16T17:31:20.405Z,12.40
2019-05-16T17:33:50.562Z,8.90
2019-05-16T17:36:20.555Z,16.30
2019-05-16T17:38:50.662Z,17.40
2019-05-16T17:41:20.579Z,10.83
2019-05-16T17:43:50.393Z,7.53
2019-05-16T17:46:33.695Z,8.40
2019-05-16T17:48:51.581Z,17.03
2019-05-16T17:51:21.501Z,8.63
2019-05-16T17:53:51.206Z,9.67
2019-05-16T17:56:21.248Z,8.97
2019-05-16T17:58:51.119Z,6.67
2019-05-16T18:01:20.875Z,7.13
2019-05-16T18:03:50.761Z,7.60
2019-05-16T18:06:21.041Z,8.73
2019-05-16T18:08:50.586Z,12.50
2019-05-16T18:11:20.356Z,6.63
2019-05-16T18:13:50.085Z,11.43
2019-05-16T18:16:20.759Z,5.00
2019-05-16T18:18:50.731Z,6.67
2019-05-16T18:21:20.780Z,11.70
2019-05-16T18:23:50.879Z,8.90
2019-05-16T18:26:21.147Z,5.83
2019-05-16T18:28:51.048Z,9.67
2019-05-16T18:31:20.902Z,10.70
2019-05-16T18:33:51.487Z,10.50
2019-05-16T18:36:21.635Z,5.80
2019-05-16T18:38:51.657Z,6.30
2019-05-16T18:41:21.795Z,9.13
2019-05-16T18:43:51.938Z,7.10
2019-05-16T18:46:21.672Z,7.63
2019-05-16T18:48:51.524Z,11.77
2019-05-16T18:51:21.341Z,5.77
2019-05-16T18:53:51.515Z,8.10
2019-05-16T18:56:21.344Z,8.37
2019-05-16T18:58:51.065Z,9.40
2019-05-16T19:01:20.642Z,9.73
2019-05-16T19:03:50.360Z,11.90
2019-05-16T19:06:20.104Z,7.00
2019-05-16T19:08:49.870Z,9.87
2019-05-16T19:11:20.077Z,6.50
2019-05-16T19:13:49.867Z,6.70
2019-05-16T19:16:19.739Z,10.47
2019-05-16T19:18:49.452Z,7.30
2019-05-16T19:21:19.887Z,10.80
2019-05-16T19:23:50.358Z,12.93
2019-05-16T19:26:20.350Z,9.50
2019-05-16T19:28:51.640Z,7.27
2019-05-16T19:31:21.276Z,9.63
2019-05-16T19:33:51.768Z,8.60
2019-05-16T19:36:22.258Z,6.73
2019-05-16T19:38:52.049Z,8.57
2019-05-16T19:41:22.452Z,9.63
2019-05-16T19:43:52.685Z,9.40
2019-05-16T19:46:23.606Z,9.40
2019-05-16T19:48:54.126Z,11.67
2019-05-16T19:51:23.780Z,20.70
2019-05-16T19:53:56.444Z,12.20
2019-05-16T19:56:26.994Z,10.83
2019-05-16T19:58:57.273Z,16.57
2019-05-16T20:01:27.524Z,14.67
2019-05-16T20:03:57.941Z,14.77
2019-05-16T20:06:28.589Z,19.70
2019-05-16T20:08:58.755Z,16.50
2019-05-16T20:11:28.542Z,19.40
2019-05-16T20:13:58.814Z,14.07
2019-05-16T20:16:28.923Z,16.37
2019-05-16T20:18:59.052Z,16.23
2019-05-16T20:21:29.217Z,21.70
2019-05-16T20:23:59.524Z,16.60
2019-05-16T20:26:29.953Z,16.00
2019-05-16T20:28:59.702Z,17.97
2019-05-16T20:31:29.381Z,19.13
2019-05-16T20:33:59.830Z,25.50
2019-05-16T20:36:29.911Z,18.83
2019-05-16T20:39:00.300Z,19.67
2019-05-16T20:41:30.938Z,17.17
2019-05-16T20:44:00.865Z,16.23
2019-05-16T20:46:32.161Z,18.10
2019-05-16T20:49:02.834Z,17.47
2019-05-16T20:51:32.958Z,22.17
2019-05-16T20:54:03.344Z,17.60
2019-05-16T20:56:33.287Z,21.07
2019-05-16T20:59:03.244Z,22.60
2019-05-16T21:01:33.491Z,23.07
2019-05-16T21:04:06.786Z,24.43
2019-05-16T21:06:35.718Z,20.97
2019-05-16T21:09:06.898Z,23.50
2019-05-16T21:11:37.402Z,23.73
2019-05-16T21:14:08.127Z,24.17
2019-05-16T21:16:38.305Z,27.33
2019-05-16T21:19:08.131Z,26.27
2019-05-16T21:21:38.362Z,24.63
2019-05-16T21:24:08.289Z,24.73
2019-05-16T21:26:38.494Z,26.57
2019-05-16T21:29:08.347Z,24.70
2019-05-16T21:31:38.516Z,25.77
2019-05-16T21:34:08.647Z,26.60
2019-05-16T21:36:39.735Z,26.00
2019-05-16T21:39:10.866Z,26.50
2019-05-16T21:41:41.820Z,26.80
2019-05-16T21:44:12.109Z,25.80
2019-05-16T21:46:42.995Z,26.90
2019-05-16T21:49:13.158Z,27.97
2019-05-16T21:51:43.752Z,21.80
2019-05-16T21:54:13.787Z,24.40
2019-05-16T21:56:46.640Z,30.90
2019-05-16T21:59:16.470Z,25.43
2019-05-16T22:01:47.299Z,25.50
2019-05-16T22:04:18.198Z,28.00
2019-05-16T22:06:48.410Z,28.00
2019-05-16T22:09:18.306Z,27.80
2019-05-16T22:11:48.414Z,27.07
2019-05-16T22:14:24.786Z,27.03
2019-05-16T22:16:56.890Z,27.80
2019-05-16T22:19:27.619Z,29.40
2019-05-16T22:21:58.515Z,26.23
2019-05-16T22:24:28.684Z,30.90
2019-05-16T22:26:58.826Z,31.30
2019-05-16T22:29:29.216Z,28.70
2019-05-16T22:31:59.153Z,26.20
2019-05-16T22:34:29.070Z,28.60
2019-05-16T22:36:59.575Z,27.43
2019-05-16T22:39:29.419Z,27.50
2019-05-16T22:41:59.148Z,32.07
2019-05-16T22:44:29.665Z,25.27
2019-05-16T22:46:59.687Z,39.40
2019-05-16T22:49:30.250Z,26.57
2019-05-16T22:52:00.673Z,29.63
2019-05-16T22:54:31.303Z,26.03
2019-05-16T22:57:01.785Z,25.57
2019-05-16T22:59:31.919Z,29.37
2019-05-16T23:02:02.146Z,30.53
2019-05-16T23:04:32.188Z,23.07
2019-05-16T23:07:01.867Z,24.50
2019-05-16T23:09:31.985Z,24.10
2019-05-16T23:12:01.994Z,25.03
2019-05-16T23:14:31.692Z,23.60
2019-05-16T23:17:01.492Z,21.30
2019-05-16T23:19:31.375Z,20.23
2019-05-16T23:22:01.462Z,18.43
2019-05-16T23:24:31.263Z,22.33
2019-05-16T23:27:01.035Z,22.80
2019-05-16T23:29:31.292Z,18.50
2019-05-16T23:32:01.060Z,23.40
2019-05-16T23:34:31.631Z,21.70
2019-05-16T23:37:02.232Z,20.13
2019-05-16T23:39:32.858Z,22.30
2019-05-16T23:42:02.772Z,21.00
2019-05-16T23:44:33.037Z,22.63
2019-05-16T23:47:03.263Z,20.80
2019-05-16T23:49:33.659Z,21.37
2019-05-16T23:52:04.385Z,22.50
2019-05-16T23:54:36.734Z,25.00
2019-05-16T23:57:06.587Z,22.10
2019-05-16T23:59:37.023Z,24.50
